sensor_id;sensor_type;location;lat;lon;timestamp;P1;durP1;ratioP1;P2;durP2;ratioP2
61590;SDS011;71994;52.410;-1.966;2023-12-07T00:02:51;2.90;;;2.00;;
61590;SDS011;71994;52.410;-1.966;2023-12-07T00:06:00;3.33;;;1.92;;
61590;SDS011;71994;52.410;-1.966;2023-12-07T00:09:06;4.63;;;2.53;;
61590;SDS011;71994;52.410;-1.966;2023-12-07T00:12:13;2.50;;;1.98;;
61590;SDS011;71994;52.410;-1.966;2023-12-07T00:15:19;3.60;;;2.05;;
61590;SDS011;71994;52.410;-1.966;2023-12-07T00:18:25;3.13;;;2.20;;
61590;SDS011;71994;52.410;-1.966;2023-12-07T00:21:34;3.53;;;2.05;;
61590;SDS011;71994;52.410;-1.966;2023-12-07T00:24:40;2.95;;;2.15;;
61590;SDS011;71994;52.410;-1.966;2023-12-07T00:27:47;4.95;;;2.67;;
61590;SDS011;71994;52.410;-1.966;2023-12-07T00:30:53;3.05;;;1.85;;
61590;SDS011;71994;52.410;-1.966;2023-12-07T00:34:00;3.42;;;2.30;;
61590;SDS011;71994;52.410;-1.966;2023-12-07T00:37:09;3.63;;;2.42;;
61590;SDS011;71994;52.410;-1.966;2023-12-07T00:40:16;3.97;;;2.17;;
61590;SDS011;71994;52.410;-1.966;2023-12-07T00:43:22;3.92;;;2.40;;
61590;SDS011;71994;52.410;-1.966;2023-12-07T00:46:29;3.05;;;1.95;;
61590;SDS011;71994;52.410;-1.966;2023-12-07T00:49:37;3.40;;;2.22;;
61590;SDS011;71994;52.410;-1.966;2023-12-07T00:55:54;3.20;;;2.13;;
61590;SDS011;71994;52.410;-1.966;2023-12-07T00:59:01;2.90;;;1.85;;
61590;SDS011;71994;52.410;-1.966;2023-12-07T01:02:08;3.95;;;2.25;;
61590;SDS011;71994;52.410;-1.966;2023-12-07T01:05:14;3.80;;;1.85;;
61590;SDS011;71994;52.410;-1.966;2023-12-07T01:08:23;2.85;;;1.73;;
61590;SDS011;71994;52.410;-1.966;2023-12-07T01:11:29;2.90;;;1.73;;
61590;SDS011;71994;52.410;-1.966;2023-12-07T01:14:36;4.32;;;1.90;;
61590;SDS011;71994;52.410;-1.966;2023-12-07T01:17:42;3.25;;;1.83;;
61590;SDS011;71994;52.410;-1.966;2023-12-07T01:20:48;3.47;;;1.80;;
61590;SDS011;71994;52.410;-1.966;2023-12-07T01:23:57;3.20;;;1.85;;
61590;SDS011;71994;52.410;-1.966;2023-12-07T01:27:04;2.78;;;1.75;;
61590;SDS011;71994;52.410;-1.966;2023-12-07T01:30:11;3.28;;;2.00;;
61590;SDS011;71994;52.410;-1.966;2023-12-07T01:33:17;2.95;;;1.98;;
61590;SDS011;71994;52.410;-1.966;2023-12-07T01:36:24;4.20;;;2.10;;
61590;SDS011;71994;52.410;-1.966;2023-12-07T01:39:33;2.67;;;1.80;;
61590;SDS011;71994;52.410;-1.966;2023-12-07T01:42:40;4.63;;;2.20;;
61590;SDS011;71994;52.410;-1.966;2023-12-07T01:45:46;3.30;;;1.90;;
61590;SDS011;71994;52.410;-1.966;2023-12-07T01:48:53;3.70;;;2.10;;
61590;SDS011;71994;52.410;-1.966;2023-12-07T01:52:00;3.17;;;1.73;;
61590;SDS011;71994;52.410;-1.966;2023-12-07T01:55:10;3.33;;;2.15;;
61590;SDS011;71994;52.410;-1.966;2023-12-07T02:01:23;3.15;;;1.73;;
61590;SDS011;71994;52.410;-1.966;2023-12-07T02:04:30;3.72;;;1.80;;
61590;SDS011;71994;52.410;-1.966;2023-12-07T02:07:36;3.72;;;1.77;;
61590;SDS011;71994;52.410;-1.966;2023-12-07T02:10:45;3.28;;;1.85;;
61590;SDS011;71994;52.410;-1.966;2023-12-07T02:13:52;3.10;;;1.80;;
61590;SDS011;71994;52.410;-1.966;2023-12-07T02:17:02;2.72;;;1.65;;
61590;SDS011;71994;52.410;-1.966;2023-12-07T02:20:16;3.55;;;1.65;;
61590;SDS011;71994;52.410;-1.966;2023-12-07T02:23:29;2.80;;;1.70;;
61590;SDS011;71994;52.410;-1.966;2023-12-07T02:26:41;3.03;;;1.40;;
61590;SDS011;71994;52.410;-1.966;2023-12-07T02:29:48;2.58;;;1.67;;
61590;SDS011;71994;52.410;-1.966;2023-12-07T02:32:55;2.20;;;1.55;;
61590;SDS011;71994;52.410;-1.966;2023-12-07T02:36:01;3.40;;;1.70;;
61590;SDS011;71994;52.410;-1.966;2023-12-07T02:39:07;2.88;;;1.90;;
61590;SDS011;71994;52.410;-1.966;2023-12-07T02:42:17;2.53;;;1.58;;
61590;SDS011;71994;52.410;-1.966;2023-12-07T02:45:25;2.63;;;1.63;;
61590;SDS011;71994;52.410;-1.966;2023-12-07T02:48:31;3.40;;;1.75;;
61590;SDS011;71994;52.410;-1.966;2023-12-07T02:51:38;2.63;;;1.80;;
61590;SDS011;71994;52.410;-1.966;2023-12-07T02:54:44;2.65;;;1.50;;
61590;SDS011;71994;52.410;-1.966;2023-12-07T02:57:53;1.98;;;1.50;;
61590;SDS011;71994;52.410;-1.966;2023-12-07T03:00:59;2.50;;;1.50;;
61590;SDS011;71994;52.410;-1.966;2023-12-07T03:04:07;2.25;;;1.42;;
61590;SDS011;71994;52.410;-1.966;2023-12-07T03:07:13;3.85;;;1.98;;
61590;SDS011;71994;52.410;-1.966;2023-12-07T03:10:19;4.22;;;1.90;;
61590;SDS011;71994;52.410;-1.966;2023-12-07T03:13:28;2.92;;;1.85;;
61590;SDS011;71994;52.410;-1.966;2023-12-07T03:16:34;2.45;;;1.60;;
61590;SDS011;71994;52.410;-1.966;2023-12-07T03:19:41;3.38;;;1.63;;
61590;SDS011;71994;52.410;-1.966;2023-12-07T03:22:47;3.47;;;1.80;;
61590;SDS011;71994;52.410;-1.966;2023-12-07T03:25:54;2.88;;;1.70;;
61590;SDS011;71994;52.410;-1.966;2023-12-07T03:29:03;2.90;;;1.70;;
61590;SDS011;71994;52.410;-1.966;2023-12-07T03:32:09;3.07;;;1.57;;
61590;SDS011;71994;52.410;-1.966;2023-12-07T03:35:15;2.70;;;1.50;;
61590;SDS011;71994;52.410;-1.966;2023-12-07T03:38:22;2.20;;;1.30;;
61590;SDS011;71994;52.410;-1.966;2023-12-07T03:41:28;3.00;;;1.40;;
61590;SDS011;71994;52.410;-1.966;2023-12-07T03:44:37;2.67;;;1.50;;
61590;SDS011;71994;52.410;-1.966;2023-12-07T03:47:43;2.88;;;1.60;;
61590;SDS011;71994;52.410;-1.966;2023-12-07T03:50:49;3.42;;;1.50;;
61590;SDS011;71994;52.410;-1.966;2023-12-07T03:53:56;4.05;;;1.52;;
61590;SDS011;71994;52.410;-1.966;2023-12-07T03:57:02;2.15;;;1.50;;
61590;SDS011;71994;52.410;-1.966;2023-12-07T04:00:13;2.38;;;1.35;;
61590;SDS011;71994;52.410;-1.966;2023-12-07T04:03:20;2.50;;;1.33;;
61590;SDS011;71994;52.410;-1.966;2023-12-07T04:06:26;3.10;;;1.60;;
61590;SDS011;71994;52.410;-1.966;2023-12-07T04:09:33;3.35;;;1.42;;
61590;SDS011;71994;52.410;-1.966;2023-12-07T04:12:40;3.83;;;1.50;;
61590;SDS011;71994;52.410;-1.966;2023-12-07T04:15:49;1.98;;;1.30;;
61590;SDS011;71994;52.410;-1.966;2023-12-07T04:18:58;2.58;;;1.40;;
61590;SDS011;71994;52.410;-1.966;2023-12-07T04:22:05;2.42;;;1.23;;
61590;SDS011;71994;52.410;-1.966;2023-12-07T04:25:11;3.65;;;1.60;;
61590;SDS011;71994;52.410;-1.966;2023-12-07T04:28:17;3.25;;;1.40;;
61590;SDS011;71994;52.410;-1.966;2023-12-07T04:31:26;3.03;;;1.67;;
61590;SDS011;71994;52.410;-1.966;2023-12-07T04:34:32;2.95;;;1.40;;
61590;SDS011;71994;52.410;-1.966;2023-12-07T04:37:39;2.58;;;1.70;;
61590;SDS011;71994;52.410;-1.966;2023-12-07T04:40:45;2.88;;;1.40;;
61590;SDS011;71994;52.410;-1.966;2023-12-07T04:43:51;2.05;;;1.35;;
61590;SDS011;71994;52.410;-1.966;2023-12-07T04:47:00;3.95;;;1.73;;
61590;SDS011;71994;52.410;-1.966;2023-12-07T04:50:07;3.03;;;1.60;;
61590;SDS011;71994;52.410;-1.966;2023-12-07T04:53:13;3.50;;;1.40;;
61590;SDS011;71994;52.410;-1.966;2023-12-07T04:56:20;2.20;;;1.38;;
61590;SDS011;71994;52.410;-1.966;2023-12-07T04:59:26;2.72;;;1.50;;
61590;SDS011;71994;52.410;-1.966;2023-12-07T05:02:35;2.22;;;1.30;;
61590;SDS011;71994;52.410;-1.966;2023-12-07T05:05:41;2.77;;;1.33;;
61590;SDS011;71994;52.410;-1.966;2023-12-07T05:08:48;2.63;;;1.52;;
61590;SDS011;71994;52.410;-1.966;2023-12-07T05:11:54;3.72;;;1.70;;
61590;SDS011;71994;52.410;-1.966;2023-12-07T05:15:00;2.20;;;1.40;;
61590;SDS011;71994;52.410;-1.966;2023-12-07T05:18:11;2.20;;;1.30;;
61590;SDS011;71994;52.410;-1.966;2023-12-07T05:21:17;2.65;;;1.20;;
61590;SDS011;71994;52.410;-1.966;2023-12-07T05:24:23;2.40;;;1.40;;
61590;SDS011;71994;52.410;-1.966;2023-12-07T05:27:29;2.20;;;1.20;;
61590;SDS011;71994;52.410;-1.966;2023-12-07T05:30:35;2.85;;;1.48;;
61590;SDS011;71994;52.410;-1.966;2023-12-07T05:33:44;1.90;;;1.23;;
61590;SDS011;71994;52.410;-1.966;2023-12-07T05:36:51;2.13;;;1.33;;
61590;SDS011;71994;52.410;-1.966;2023-12-07T05:39:57;2.22;;;1.33;;
61590;SDS011;71994;52.410;-1.966;2023-12-07T05:43:03;3.67;;;1.65;;
61590;SDS011;71994;52.410;-1.966;2023-12-07T05:46:10;2.30;;;1.30;;
61590;SDS011;71994;52.410;-1.966;2023-12-07T05:49:19;2.13;;;1.40;;
61590;SDS011;71994;52.410;-1.966;2023-12-07T05:52:26;2.45;;;1.40;;
61590;SDS011;71994;52.410;-1.966;2023-12-07T05:55:33;3.05;;;1.30;;
61590;SDS011;71994;52.410;-1.966;2023-12-07T05:58:39;2.75;;;1.45;;
61590;SDS011;71994;52.410;-1.966;2023-12-07T06:01:45;2.60;;;1.25;;
61590;SDS011;71994;52.410;-1.966;2023-12-07T06:04:54;3.45;;;1.30;;
61590;SDS011;71994;52.410;-1.966;2023-12-07T06:08:01;2.85;;;1.50;;
61590;SDS011;71994;52.410;-1.966;2023-12-07T06:11:07;2.05;;;1.30;;
61590;SDS011;71994;52.410;-1.966;2023-12-07T06:14:13;2.08;;;1.25;;
61590;SDS011;71994;52.410;-1.966;2023-12-07T06:17:19;1.80;;;1.10;;
61590;SDS011;71994;52.410;-1.966;2023-12-07T06:20:29;1.73;;;1.23;;
61590;SDS011;71994;52.410;-1.966;2023-12-07T06:23:36;2.00;;;1.30;;
61590;SDS011;71994;52.410;-1.966;2023-12-07T06:26:42;2.45;;;1.23;;
61590;SDS011;71994;52.410;-1.966;2023-12-07T06:29:48;2.88;;;1.17;;
61590;SDS011;71994;52.410;-1.966;2023-12-07T06:32:55;2.40;;;1.30;;
61590;SDS011;71994;52.410;-1.966;2023-12-07T06:36:04;1.88;;;1.25;;
61590;SDS011;71994;52.410;-1.966;2023-12-07T06:39:11;1.30;;;1.08;;
61590;SDS011;71994;52.410;-1.966;2023-12-07T06:42:18;2.30;;;1.10;;
61590;SDS011;71994;52.410;-1.966;2023-12-07T06:45:25;2.30;;;1.20;;
61590;SDS011;71994;52.410;-1.966;2023-12-07T06:48:31;2.03;;;1.30;;
61590;SDS011;71994;52.410;-1.966;2023-12-07T06:51:40;2.35;;;1.40;;
61590;SDS011;71994;52.410;-1.966;2023-12-07T06:54:46;1.85;;;1.30;;
61590;SDS011;71994;52.410;-1.966;2023-12-07T06:57:53;1.67;;;1.02;;
61590;SDS011;71994;52.410;-1.966;2023-12-07T07:00:59;2.20;;;1.40;;
61590;SDS011;71994;52.410;-1.966;2023-12-07T07:04:05;2.83;;;1.33;;
61590;SDS011;71994;52.410;-1.966;2023-12-07T07:07:14;3.60;;;1.40;;
61590;SDS011;71994;52.410;-1.966;2023-12-07T07:10:21;1.70;;;1.10;;
61590;SDS011;71994;52.410;-1.966;2023-12-07T07:13:27;2.03;;;1.13;;
61590;SDS011;71994;52.410;-1.966;2023-12-07T07:16:33;2.08;;;1.30;;
61590;SDS011;71994;52.410;-1.966;2023-12-07T07:19:39;2.42;;;1.25;;
61590;SDS011;71994;52.410;-1.966;2023-12-07T07:22:49;2.33;;;1.20;;
61590;SDS011;71994;52.410;-1.966;2023-12-07T07:25:55;2.75;;;1.30;;
61590;SDS011;71994;52.410;-1.966;2023-12-07T07:29:02;1.80;;;1.10;;
61590;SDS011;71994;52.410;-1.966;2023-12-07T07:32:08;2.03;;;1.20;;
61590;SDS011;71994;52.410;-1.966;2023-12-07T07:35:15;2.35;;;1.15;;
61590;SDS011;71994;52.410;-1.966;2023-12-07T07:38:27;1.88;;;1.20;;
61590;SDS011;71994;52.410;-1.966;2023-12-07T07:41:33;1.40;;;0.93;;
61590;SDS011;71994;52.410;-1.966;2023-12-07T07:44:40;2.72;;;1.15;;
61590;SDS011;71994;52.410;-1.966;2023-12-07T07:47:46;1.55;;;0.82;;
61590;SDS011;71994;52.410;-1.966;2023-12-07T07:50:52;1.35;;;1.00;;
61590;SDS011;71994;52.410;-1.966;2023-12-07T07:54:01;2.13;;;0.93;;
61590;SDS011;71994;52.410;-1.966;2023-12-07T07:57:07;2.10;;;1.20;;
61590;SDS011;71994;52.410;-1.966;2023-12-07T08:00:14;1.40;;;1.00;;
61590;SDS011;71994;52.410;-1.966;2023-12-07T08:03:21;1.55;;;0.95;;
61590;SDS011;71994;52.410;-1.966;2023-12-07T08:06:28;1.45;;;0.90;;
61590;SDS011;71994;52.410;-1.966;2023-12-07T08:09:37;3.13;;;1.10;;
61590;SDS011;71994;52.410;-1.966;2023-12-07T08:12:43;1.40;;;0.90;;
61590;SDS011;71994;52.410;-1.966;2023-12-07T08:15:49;2.00;;;0.93;;
61590;SDS011;71994;52.410;-1.966;2023-12-07T08:18:56;1.33;;;0.82;;
61590;SDS011;71994;52.410;-1.966;2023-12-07T08:22:02;1.63;;;0.73;;
61590;SDS011;71994;52.410;-1.966;2023-12-07T08:25:11;1.70;;;0.95;;
61590;SDS011;71994;52.410;-1.966;2023-12-07T08:28:19;1.85;;;0.90;;
61590;SDS011;71994;52.410;-1.966;2023-12-07T08:31:25;2.22;;;0.70;;
61590;SDS011;71994;52.410;-1.966;2023-12-07T08:34:32;1.77;;;0.80;;
61590;SDS011;71994;52.410;-1.966;2023-12-07T08:37:40;2.30;;;0.90;;
61590;SDS011;71994;52.410;-1.966;2023-12-07T08:40:49;1.83;;;1.00;;
61590;SDS011;71994;52.410;-1.966;2023-12-07T08:43:55;1.50;;;0.77;;
61590;SDS011;71994;52.410;-1.966;2023-12-07T08:47:01;1.23;;;0.80;;
61590;SDS011;71994;52.410;-1.966;2023-12-07T08:50:08;2.70;;;1.10;;
61590;SDS011;71994;52.410;-1.966;2023-12-07T08:53:14;1.20;;;0.85;;
61590;SDS011;71994;52.410;-1.966;2023-12-07T08:56:23;1.65;;;0.80;;
61590;SDS011;71994;52.410;-1.966;2023-12-07T08:59:30;1.30;;;0.80;;
61590;SDS011;71994;52.410;-1.966;2023-12-07T09:02:36;1.67;;;0.77;;
61590;SDS011;71994;52.410;-1.966;2023-12-07T09:05:42;2.72;;;0.95;;
61590;SDS011;71994;52.410;-1.966;2023-12-07T09:08:49;2.08;;;0.82;;
61590;SDS011;71994;52.410;-1.966;2023-12-07T09:11:58;1.75;;;0.77;;
61590;SDS011;71994;52.410;-1.966;2023-12-07T09:15:05;1.80;;;0.73;;
61590;SDS011;71994;52.410;-1.966;2023-12-07T09:18:12;1.63;;;0.70;;
61590;SDS011;71994;52.410;-1.966;2023-12-07T09:21:18;2.05;;;0.82;;
61590;SDS011;71994;52.410;-1.966;2023-12-07T09:24:25;1.48;;;0.77;;
61590;SDS011;71994;52.410;-1.966;2023-12-07T09:27:34;1.70;;;0.80;;
61590;SDS011;71994;52.410;-1.966;2023-12-07T09:30:41;1.57;;;0.90;;
61590;SDS011;71994;52.410;-1.966;2023-12-07T09:33:47;1.55;;;0.65;;
61590;SDS011;71994;52.410;-1.966;2023-12-07T09:37:05;1.70;;;0.90;;
61590;SDS011;71994;52.410;-1.966;2023-12-07T09:40:15;2.42;;;0.80;;
61590;SDS011;71994;52.410;-1.966;2023-12-07T09:43:25;1.40;;;0.90;;
61590;SDS011;71994;52.410;-1.966;2023-12-07T09:46:32;3.65;;;0.90;;
61590;SDS011;71994;52.410;-1.966;2023-12-07T09:49:39;2.28;;;0.80;;
61590;SDS011;71994;52.410;-1.966;2023-12-07T09:52:48;1.70;;;0.80;;
61590;SDS011;71994;52.410;-1.966;2023-12-07T09:55:55;1.90;;;0.90;;
61590;SDS011;71994;52.410;-1.966;2023-12-07T09:59:09;2.35;;;0.70;;
61590;SDS011;71994;52.410;-1.966;2023-12-07T10:02:15;1.85;;;0.70;;
61590;SDS011;71994;52.410;-1.966;2023-12-07T10:05:22;2.35;;;0.88;;
61590;SDS011;71994;52.410;-1.966;2023-12-07T10:08:28;1.88;;;0.88;;
61590;SDS011;71994;52.410;-1.966;2023-12-07T10:11:38;2.55;;;0.88;;
61590;SDS011;71994;52.410;-1.966;2023-12-07T10:14:48;2.08;;;0.75;;
61590;SDS011;71994;52.410;-1.966;2023-12-07T10:17:56;1.98;;;0.70;;
61590;SDS011;71994;52.410;-1.966;2023-12-07T10:21:04;9.90;;;0.93;;
61590;SDS011;71994;52.410;-1.966;2023-12-07T10:24:11;4.15;;;0.82;;
61590;SDS011;71994;52.410;-1.966;2023-12-07T10:27:17;3.08;;;0.80;;
61590;SDS011;71994;52.410;-1.966;2023-12-07T10:30:27;3.00;;;0.90;;
61590;SDS011;71994;52.410;-1.966;2023-12-07T10:33:34;4.88;;;0.88;;
61590;SDS011;71994;52.410;-1.966;2023-12-07T10:36:40;1.73;;;0.68;;
61590;SDS011;71994;52.410;-1.966;2023-12-07T10:39:46;8.75;;;1.10;;
61590;SDS011;71994;52.410;-1.966;2023-12-07T10:42:54;2.03;;;0.75;;
61590;SDS011;71994;52.410;-1.966;2023-12-07T10:46:06;4.45;;;0.80;;
61590;SDS011;71994;52.410;-1.966;2023-12-07T10:49:15;3.28;;;0.80;;
61590;SDS011;71994;52.410;-1.966;2023-12-07T10:52:26;2.78;;;1.10;;
61590;SDS011;71994;52.410;-1.966;2023-12-07T10:55:38;2.40;;;0.85;;
61590;SDS011;71994;52.410;-1.966;2023-12-07T10:58:51;3.95;;;0.90;;
61590;SDS011;71994;52.410;-1.966;2023-12-07T11:02:02;2.00;;;0.93;;
61590;SDS011;71994;52.410;-1.966;2023-12-07T11:05:13;2.88;;;0.90;;
61590;SDS011;71994;52.410;-1.966;2023-12-07T11:08:21;3.30;;;0.80;;
61590;SDS011;71994;52.410;-1.966;2023-12-07T11:11:35;2.88;;;0.90;;
61590;SDS011;71994;52.410;-1.966;2023-12-07T11:14:50;1.98;;;1.00;;
61590;SDS011;71994;52.410;-1.966;2023-12-07T11:17:59;3.80;;;1.10;;
61590;SDS011;71994;52.410;-1.966;2023-12-07T11:21:08;2.92;;;1.00;;
61590;SDS011;71994;52.410;-1.966;2023-12-07T11:24:16;2.13;;;0.80;;
61590;SDS011;71994;52.410;-1.966;2023-12-07T11:27:22;2.50;;;1.05;;
61590;SDS011;71994;52.410;-1.966;2023-12-07T11:30:30;2.22;;;0.90;;
61590;SDS011;71994;52.410;-1.966;2023-12-07T11:33:41;3.58;;;1.10;;
61590;SDS011;71994;52.410;-1.966;2023-12-07T11:36:48;1.60;;;0.80;;
61590;SDS011;71994;52.410;-1.966;2023-12-07T11:39:55;3.97;;;1.10;;
61590;SDS011;71994;52.410;-1.966;2023-12-07T11:43:03;2.58;;;0.90;;
61590;SDS011;71994;52.410;-1.966;2023-12-07T11:46:09;2.40;;;0.85;;
61590;SDS011;71994;52.410;-1.966;2023-12-07T11:49:19;1.77;;;0.80;;
61590;SDS011;71994;52.410;-1.966;2023-12-07T11:52:27;2.45;;;1.08;;
61590;SDS011;71994;52.410;-1.966;2023-12-07T11:55:33;2.80;;;0.80;;
61590;SDS011;71994;52.410;-1.966;2023-12-07T11:58:39;1.80;;;1.00;;
61590;SDS011;71994;52.410;-1.966;2023-12-07T12:01:46;2.75;;;1.00;;
61590;SDS011;71994;52.410;-1.966;2023-12-07T12:04:56;2.80;;;0.88;;
61590;SDS011;71994;52.410;-1.966;2023-12-07T12:08:04;2.00;;;0.88;;
61590;SDS011;71994;52.410;-1.966;2023-12-07T12:11:10;3.03;;;0.93;;
61590;SDS011;71994;52.410;-1.966;2023-12-07T12:14:17;2.97;;;0.82;;
61590;SDS011;71994;52.410;-1.966;2023-12-07T12:17:23;3.35;;;1.08;;
61590;SDS011;71994;52.410;-1.966;2023-12-07T12:20:32;2.08;;;0.90;;
61590;SDS011;71994;52.410;-1.966;2023-12-07T12:23:39;3.10;;;0.90;;
61590;SDS011;71994;52.410;-1.966;2023-12-07T12:26:46;4.20;;;1.10;;
61590;SDS011;71994;52.410;-1.966;2023-12-07T12:29:53;2.13;;;0.80;;
61590;SDS011;71994;52.410;-1.966;2023-12-07T12:32:59;2.60;;;0.77;;
61590;SDS011;71994;52.410;-1.966;2023-12-07T12:36:10;2.08;;;0.82;;
61590;SDS011;71994;52.410;-1.966;2023-12-07T12:39:17;3.17;;;1.00;;
61590;SDS011;71994;52.410;-1.966;2023-12-07T12:42:23;4.03;;;1.00;;
61590;SDS011;71994;52.410;-1.966;2023-12-07T12:45:29;4.70;;;0.80;;
61590;SDS011;71994;52.410;-1.966;2023-12-07T12:48:35;2.17;;;0.90;;
61590;SDS011;71994;52.410;-1.966;2023-12-07T12:51:45;4.15;;;1.27;;
61590;SDS011;71994;52.410;-1.966;2023-12-07T12:54:51;2.40;;;1.00;;
61590;SDS011;71994;52.410;-1.966;2023-12-07T12:58:00;2.08;;;0.95;;
61590;SDS011;71994;52.410;-1.966;2023-12-07T13:01:07;1.75;;;0.82;;
61590;SDS011;71994;52.410;-1.966;2023-12-07T13:04:13;2.17;;;1.05;;
61590;SDS011;71994;52.410;-1.966;2023-12-07T13:07:23;2.15;;;0.88;;
61590;SDS011;71994;52.410;-1.966;2023-12-07T13:10:29;2.22;;;0.90;;
61590;SDS011;71994;52.410;-1.966;2023-12-07T13:13:36;1.65;;;0.80;;
61590;SDS011;71994;52.410;-1.966;2023-12-07T13:16:42;2.33;;;0.90;;
61590;SDS011;71994;52.410;-1.966;2023-12-07T13:19:48;3.08;;;1.10;;
61590;SDS011;71994;52.410;-1.966;2023-12-07T13:22:57;3.17;;;1.17;;
61590;SDS011;71994;52.410;-1.966;2023-12-07T13:26:03;3.15;;;0.90;;
61590;SDS011;71994;52.410;-1.966;2023-12-07T13:29:11;2.13;;;0.80;;
61590;SDS011;71994;52.410;-1.966;2023-12-07T13:32:17;2.72;;;1.00;;
61590;SDS011;71994;52.410;-1.966;2023-12-07T13:35:23;2.83;;;1.00;;
61590;SDS011;71994;52.410;-1.966;2023-12-07T13:38:33;2.13;;;0.80;;
61590;SDS011;71994;52.410;-1.966;2023-12-07T13:41:39;3.17;;;1.05;;
61590;SDS011;71994;52.410;-1.966;2023-12-07T13:44:45;2.67;;;0.70;;
61590;SDS011;71994;52.410;-1.966;2023-12-07T13:47:51;3.00;;;1.00;;
61590;SDS011;71994;52.410;-1.966;2023-12-07T13:50:58;2.60;;;1.00;;
61590;SDS011;71994;52.410;-1.966;2023-12-07T13:54:08;2.92;;;1.17;;
61590;SDS011;71994;52.410;-1.966;2023-12-07T13:57:14;2.40;;;0.95;;
61590;SDS011;71994;52.410;-1.966;2023-12-07T14:00:21;1.60;;;0.80;;
61590;SDS011;71994;52.410;-1.966;2023-12-07T14:03:27;3.20;;;0.95;;
61590;SDS011;71994;52.410;-1.966;2023-12-07T14:06:36;1.42;;;0.75;;
61590;SDS011;71994;52.410;-1.966;2023-12-07T14:09:45;4.50;;;0.98;;
61590;SDS011;71994;52.410;-1.966;2023-12-07T14:12:53;3.05;;;1.02;;
61590;SDS011;71994;52.410;-1.966;2023-12-07T14:15:59;2.33;;;0.90;;
61590;SDS011;71994;52.410;-1.966;2023-12-07T14:19:05;2.75;;;0.95;;
61590;SDS011;71994;52.410;-1.966;2023-12-07T14:22:11;2.33;;;1.10;;
61590;SDS011;71994;52.410;-1.966;2023-12-07T14:25:20;1.42;;;0.80;;
61590;SDS011;71994;52.410;-1.966;2023-12-07T14:28:27;1.27;;;0.75;;
61590;SDS011;71994;52.410;-1.966;2023-12-07T14:31:36;2.67;;;0.80;;
61590;SDS011;71994;52.410;-1.966;2023-12-07T14:34:42;2.33;;;0.88;;
61590;SDS011;71994;52.410;-1.966;2023-12-07T14:37:49;1.85;;;0.80;;
61590;SDS011;71994;52.410;-1.966;2023-12-07T14:40:58;2.17;;;0.80;;
61590;SDS011;71994;52.410;-1.966;2023-12-07T14:44:04;2.08;;;1.05;;
61590;SDS011;71994;52.410;-1.966;2023-12-07T14:47:11;2.28;;;0.90;;
61590;SDS011;71994;52.410;-1.966;2023-12-07T14:50:17;1.75;;;0.80;;
61590;SDS011;71994;52.410;-1.966;2023-12-07T14:53:24;4.32;;;1.00;;
61590;SDS011;71994;52.410;-1.966;2023-12-07T14:56:33;2.63;;;1.20;;
61590;SDS011;71994;52.410;-1.966;2023-12-07T14:59:39;2.80;;;0.70;;
61590;SDS011;71994;52.410;-1.966;2023-12-07T15:02:45;2.30;;;1.00;;
61590;SDS011;71994;52.410;-1.966;2023-12-07T15:05:52;2.00;;;0.82;;
61590;SDS011;71994;52.410;-1.966;2023-12-07T15:08:58;1.70;;;0.90;;
61590;SDS011;71994;52.410;-1.966;2023-12-07T15:12:11;1.20;;;0.70;;
61590;SDS011;71994;52.410;-1.966;2023-12-07T15:15:17;2.17;;;1.00;;
61590;SDS011;71994;52.410;-1.966;2023-12-07T15:18:26;1.30;;;0.70;;
61590;SDS011;71994;52.410;-1.966;2023-12-07T15:21:37;1.80;;;0.80;;
61590;SDS011;71994;52.410;-1.966;2023-12-07T15:24:43;2.13;;;0.80;;
61590;SDS011;71994;52.410;-1.966;2023-12-07T15:27:53;1.73;;;0.75;;
61590;SDS011;71994;52.410;-1.966;2023-12-07T15:31:09;2.10;;;0.82;;
61590;SDS011;71994;52.410;-1.966;2023-12-07T15:34:17;1.10;;;0.70;;
61590;SDS011;71994;52.410;-1.966;2023-12-07T15:37:24;2.25;;;0.85;;
61590;SDS011;71994;52.410;-1.966;2023-12-07T15:40:35;1.35;;;0.60;;
61590;SDS011;71994;52.410;-1.966;2023-12-07T15:43:44;1.10;;;0.70;;
61590;SDS011;71994;52.410;-1.966;2023-12-07T15:46:50;2.87;;;0.90;;
61590;SDS011;71994;52.410;-1.966;2023-12-07T15:49:56;2.50;;;0.60;;
61590;SDS011;71994;52.410;-1.966;2023-12-07T15:53:03;1.17;;;0.70;;
61590;SDS011;71994;52.410;-1.966;2023-12-07T15:56:10;1.60;;;0.70;;
61590;SDS011;71994;52.410;-1.966;2023-12-07T15:59:19;1.85;;;0.82;;
61590;SDS011;71994;52.410;-1.966;2023-12-07T16:02:25;2.73;;;0.87;;
61590;SDS011;71994;52.410;-1.966;2023-12-07T16:05:31;1.48;;;0.57;;
61590;SDS011;71994;52.410;-1.966;2023-12-07T16:08:37;1.40;;;0.60;;
61590;SDS011;71994;52.410;-1.966;2023-12-07T16:11:44;1.70;;;0.60;;
61590;SDS011;71994;52.410;-1.966;2023-12-07T16:14:53;1.73;;;0.60;;
61590;SDS011;71994;52.410;-1.966;2023-12-07T16:17:59;1.67;;;0.70;;
61590;SDS011;71994;52.410;-1.966;2023-12-07T16:21:05;1.88;;;0.70;;
61590;SDS011;71994;52.410;-1.966;2023-12-07T16:24:12;1.70;;;0.68;;
61590;SDS011;71994;52.410;-1.966;2023-12-07T16:27:18;2.60;;;0.63;;
61590;SDS011;71994;52.410;-1.966;2023-12-07T16:30:27;1.77;;;0.55;;
61590;SDS011;71994;52.410;-1.966;2023-12-07T16:33:33;1.42;;;0.70;;
61590;SDS011;71994;52.410;-1.966;2023-12-07T16:36:39;2.22;;;0.70;;
61590;SDS011;71994;52.410;-1.966;2023-12-07T16:39:46;1.95;;;0.52;;
61590;SDS011;71994;52.410;-1.966;2023-12-07T16:42:52;1.48;;;0.60;;
61590;SDS011;71994;52.410;-1.966;2023-12-07T16:46:02;0.98;;;0.60;;
61590;SDS011;71994;52.410;-1.966;2023-12-07T16:49:09;1.02;;;0.55;;
61590;SDS011;71994;52.410;-1.966;2023-12-07T16:52:15;1.20;;;0.52;;
61590;SDS011;71994;52.410;-1.966;2023-12-07T16:55:22;2.72;;;0.68;;
61590;SDS011;71994;52.410;-1.966;2023-12-07T16:58:28;1.45;;;0.77;;
61590;SDS011;71994;52.410;-1.966;2023-12-07T17:01:37;1.55;;;0.80;;
61590;SDS011;71994;52.410;-1.966;2023-12-07T17:04:44;1.50;;;0.70;;
61590;SDS011;71994;52.410;-1.966;2023-12-07T17:07:50;1.35;;;0.70;;
61590;SDS011;71994;52.410;-1.966;2023-12-07T17:10:56;2.00;;;0.60;;
61590;SDS011;71994;52.410;-1.966;2023-12-07T17:14:02;2.03;;;0.70;;
61590;SDS011;71994;52.410;-1.966;2023-12-07T17:17:12;1.98;;;0.75;;
61590;SDS011;71994;52.410;-1.966;2023-12-07T17:20:18;1.17;;;0.57;;
61590;SDS011;71994;52.410;-1.966;2023-12-07T17:23:24;1.02;;;0.60;;
61590;SDS011;71994;52.410;-1.966;2023-12-07T17:26:30;1.02;;;0.60;;
61590;SDS011;71994;52.410;-1.966;2023-12-07T17:29:38;1.00;;;0.60;;
61590;SDS011;71994;52.410;-1.966;2023-12-07T17:32:47;2.83;;;0.70;;
61590;SDS011;71994;52.410;-1.966;2023-12-07T17:35:53;1.20;;;0.70;;
61590;SDS011;71994;52.410;-1.966;2023-12-07T17:39:00;1.80;;;0.70;;
61590;SDS011;71994;52.410;-1.966;2023-12-07T17:42:06;2.35;;;0.60;;
61590;SDS011;71994;52.410;-1.966;2023-12-07T17:45:12;1.33;;;0.65;;
61590;SDS011;71994;52.410;-1.966;2023-12-07T17:48:21;2.33;;;0.50;;
61590;SDS011;71994;52.410;-1.966;2023-12-07T17:51:28;1.40;;;0.60;;
61590;SDS011;71994;52.410;-1.966;2023-12-07T17:54:34;0.68;;;0.50;;
61590;SDS011;71994;52.410;-1.966;2023-12-07T17:57:40;0.98;;;0.60;;
61590;SDS011;71994;52.410;-1.966;2023-12-07T18:00:47;5.50;;;0.60;;
61590;SDS011;71994;52.410;-1.966;2023-12-07T18:04:08;1.23;;;0.60;;
61590;SDS011;71994;52.410;-1.966;2023-12-07T18:07:14;1.10;;;0.40;;
61590;SDS011;71994;52.410;-1.966;2023-12-07T18:10:28;1.00;;;0.40;;
61590;SDS011;71994;52.410;-1.966;2023-12-07T18:13:34;1.88;;;0.50;;
61590;SDS011;71994;52.410;-1.966;2023-12-07T18:16:41;0.60;;;0.40;;
61590;SDS011;71994;52.410;-1.966;2023-12-07T18:19:50;0.98;;;0.52;;
61590;SDS011;71994;52.410;-1.966;2023-12-07T18:22:59;1.50;;;0.50;;
61590;SDS011;71994;52.410;-1.966;2023-12-07T18:26:07;3.05;;;0.65;;
61590;SDS011;71994;52.410;-1.966;2023-12-07T18:29:14;1.87;;;0.63;;
61590;SDS011;71994;52.410;-1.966;2023-12-07T18:32:20;1.55;;;0.57;;
61590;SDS011;71994;52.410;-1.966;2023-12-07T18:35:29;1.33;;;0.50;;
61590;SDS011;71994;52.410;-1.966;2023-12-07T18:38:35;0.60;;;0.40;;